createdAt,value
2022-08-25T00:00:47.126Z,1019.22
2022-08-25T00:01:47.096Z,1019.21
2022-08-25T00:02:55.187Z,1019.19
2022-08-25T00:03:47.061Z,1019.22
2022-08-25T00:04:53.724Z,1019.24
2022-08-25T00:05:47.059Z,1019.24
2022-08-25T00:06:47.009Z,1019.22
2022-08-25T00:07:47.097Z,1019.23
2022-08-25T00:08:47.091Z,1019.20
2022-08-25T00:09:46.975Z,1019.23
2022-08-25T00:11:00.202Z,1019.25
2022-08-25T00:11:47.063Z,1019.13
2022-08-25T00:12:46.950Z,1019.20
2022-08-25T00:13:47.002Z,1019.21
2022-08-25T00:14:46.933Z,1019.24
2022-08-25T00:15:46.995Z,1019.15
2022-08-25T00:16:47.072Z,1019.22
2022-08-25T00:17:47.019Z,1019.18
2022-08-25T00:18:46.959Z,1019.15
2022-08-25T00:19:46.972Z,1019.16
2022-08-25T00:20:48.858Z,1019.22
2022-08-25T00:21:46.861Z,1019.21
2022-08-25T00:22:46.948Z,1019.21
2022-08-25T00:23:46.939Z,1019.21
2022-08-25T00:24:46.915Z,1019.20
2022-08-25T00:25:46.902Z,1019.17
2022-08-25T00:26:46.966Z,1019.18
2022-08-25T00:27:46.869Z,1019.19
2022-08-25T00:28:46.981Z,1019.22
2022-08-25T00:29:47.053Z,1019.16
2022-08-25T00:30:46.842Z,1019.18
2022-08-25T00:31:46.831Z,1019.16
2022-08-25T00:32:56.768Z,1019.19
2022-08-25T00:33:46.714Z,1019.25
2022-08-25T00:34:46.733Z,1019.18
2022-08-25T00:35:46.747Z,1019.19
2022-08-25T00:36:46.675Z,1019.18
2022-08-25T00:37:46.768Z,1019.19
2022-08-25T00:38:46.714Z,1019.22
2022-08-25T00:39:46.829Z,1019.22
2022-08-25T00:40:47.127Z,1019.24
2022-08-25T00:41:46.728Z,1019.27
2022-08-25T00:42:46.602Z,1019.26
2022-08-25T00:43:46.604Z,1019.27
2022-08-25T00:44:46.755Z,1019.19
2022-08-25T00:45:46.575Z,1019.28
2022-08-25T00:46:46.590Z,1019.27
2022-08-25T00:47:46.556Z,1019.24
2022-08-25T00:48:46.548Z,1019.25
2022-08-25T00:49:46.522Z,1019.24
2022-08-25T00:50:46.525Z,1019.25
2022-08-25T00:51:46.498Z,1019.27
2022-08-25T00:52:46.517Z,1019.27
2022-08-25T00:53:46.494Z,1019.22
2022-08-25T00:54:46.520Z,1019.26
2022-08-25T00:55:47.473Z,1019.27
2022-08-25T00:56:46.450Z,1019.30
2022-08-25T00:57:46.441Z,1019.26
2022-08-25T00:58:46.460Z,1019.26
2022-08-25T00:59:46.407Z,1019.25
2022-08-25T01:00:46.394Z,1019.23
2022-08-25T01:01:46.441Z,1019.26
2022-08-25T01:02:46.419Z,1019.29
2022-08-25T01:03:46.375Z,1019.28
2022-08-25T01:04:49.177Z,1019.27
2022-08-25T01:05:46.347Z,1019.28
2022-08-25T01:06:46.333Z,1019.33
2022-08-25T01:07:46.321Z,1019.35
2022-08-25T01:08:46.303Z,1019.33
2022-08-25T01:09:46.297Z,1019.35
2022-08-25T01:10:46.396Z,1019.37
2022-08-25T01:11:46.388Z,1019.37
2022-08-25T01:12:46.265Z,1019.39
2022-08-25T01:13:46.253Z,1019.38
2022-08-25T01:14:46.236Z,1019.41
2022-08-25T01:15:46.365Z,1019.35
2022-08-25T01:16:46.243Z,1019.40
2022-08-25T01:17:46.206Z,1019.36
2022-08-25T01:18:46.293Z,1019.38
2022-08-25T01:19:46.182Z,1019.47
2022-08-25T01:20:46.164Z,1019.41
2022-08-25T01:21:46.166Z,1019.43
2022-08-25T01:22:46.181Z,1019.42
2022-08-25T01:23:46.150Z,1019.46
2022-08-25T01:24:46.126Z,1019.45
2022-08-25T01:25:46.108Z,1019.43
2022-08-25T01:26:46.178Z,1019.43
2022-08-25T01:27:46.212Z,1019.41
2022-08-25T01:28:46.118Z,1019.38
2022-08-25T01:29:46.063Z,1019.39
2022-08-25T01:30:46.167Z,1019.41
2022-08-25T01:31:46.078Z,1019.40
2022-08-25T01:32:46.045Z,1019.35
2022-08-25T01:33:46.084Z,1019.36
2022-08-25T01:34:46.062Z,1019.36
2022-08-25T01:35:46.105Z,1019.30
2022-08-25T01:36:45.983Z,1019.36
2022-08-25T01:37:45.978Z,1019.36
2022-08-25T01:38:45.966Z,1019.32
2022-08-25T01:39:46.059Z,1019.34
2022-08-25T01:40:45.980Z,1019.35
2022-08-25T01:41:46.021Z,1019.33
2022-08-25T01:42:45.961Z,1019.36
2022-08-25T01:43:45.912Z,1019.41
2022-08-25T01:44:45.896Z,1019.36
2022-08-25T01:45:45.917Z,1019.39
2022-08-25T01:46:46.002Z,1019.37
2022-08-25T01:47:45.882Z,1019.42
2022-08-25T01:48:46.870Z,1019.42
2022-08-25T01:49:46.032Z,1019.45
2022-08-25T01:50:45.827Z,1019.47
2022-08-25T01:51:45.824Z,1019.49
2022-08-25T01:52:45.846Z,1019.54
2022-08-25T01:53:45.802Z,1019.55
2022-08-25T01:54:45.782Z,1019.51
2022-08-25T01:55:45.784Z,1019.50
2022-08-25T01:56:45.766Z,1019.49
2022-08-25T01:57:45.754Z,1019.49
2022-08-25T01:58:45.769Z,1019.51
2022-08-25T01:59:45.725Z,1019.48
2022-08-25T02:00:45.717Z,1019.47
2022-08-25T02:01:45.767Z,1019.46
2022-08-25T02:02:45.821Z,1019.43
2022-08-25T02:03:45.675Z,1019.44
2022-08-25T02:04:45.697Z,1019.45
2022-08-25T02:05:45.655Z,1019.42
2022-08-25T02:06:45.643Z,1019.43
2022-08-25T02:07:45.639Z,1019.41
2022-08-25T02:08:45.735Z,1019.39
2022-08-25T02:09:45.617Z,1019.38
2022-08-25T02:10:45.651Z,1019.39
2022-08-25T02:11:45.597Z,1019.42
2022-08-25T02:12:45.622Z,1019.41
2022-08-25T02:13:45.633Z,1019.40
2022-08-25T02:14:45.566Z,1019.39
2022-08-25T02:15:45.552Z,1019.39
2022-08-25T02:16:45.637Z,1019.40
2022-08-25T02:17:45.519Z,1019.41
2022-08-25T02:18:45.505Z,1019.39
2022-08-25T02:19:45.612Z,1019.41
2022-08-25T02:20:45.489Z,1019.37
2022-08-25T02:21:45.478Z,1019.41
2022-08-25T02:22:51.194Z,1019.38
2022-08-25T02:23:45.459Z,1019.39
2022-08-25T02:24:45.459Z,1019.38
2022-08-25T02:25:45.430Z,1019.37
2022-08-25T02:26:45.460Z,1019.39
2022-08-25T02:27:45.409Z,1019.31
2022-08-25T02:28:45.702Z,1019.36
2022-08-25T02:29:45.381Z,1019.35
2022-08-25T02:30:45.415Z,1019.33
2022-08-25T02:31:45.367Z,1019.36
2022-08-25T02:32:45.350Z,1019.32
2022-08-25T02:33:45.340Z,1019.34
2022-08-25T02:34:45.373Z,1019.35
2022-08-25T02:35:45.320Z,1019.33
2022-08-25T02:36:45.312Z,1019.39
2022-08-25T02:37:45.299Z,1019.37
2022-08-25T02:38:45.293Z,1019.33
2022-08-25T02:39:45.330Z,1019.39
2022-08-25T02:40:45.317Z,1019.37
2022-08-25T02:41:45.250Z,1019.38
2022-08-25T02:42:45.241Z,1019.35
2022-08-25T02:43:45.233Z,1019.35
2022-08-25T02:44:45.225Z,1019.36
2022-08-25T02:45:45.237Z,1019.37
2022-08-25T02:46:45.230Z,1019.34
2022-08-25T02:47:45.175Z,1019.31
2022-08-25T02:48:45.178Z,1019.35
2022-08-25T02:49:45.163Z,1019.30
2022-08-25T02:50:45.148Z,1019.27
2022-08-25T02:51:45.138Z,1019.26
2022-08-25T02:52:45.206Z,1019.28
2022-08-25T02:53:45.114Z,1019.32
2022-08-25T02:54:45.224Z,1019.23
2022-08-25T02:55:45.191Z,1019.28
2022-08-25T02:56:45.203Z,1019.27
2022-08-25T02:57:45.180Z,1019.26
2022-08-25T02:58:45.238Z,1019.28
2022-08-25T02:59:45.163Z,1019.28
2022-08-25T03:00:45.291Z,1019.32
2022-08-25T03:01:45.132Z,1019.28
2022-08-25T03:02:45.015Z,1019.30
2022-08-25T03:03:45.181Z,1019.29
2022-08-25T03:04:45.245Z,1019.30
2022-08-25T03:05:45.074Z,1019.29
2022-08-25T03:06:45.075Z,1019.27
2022-08-25T03:07:45.047Z,1019.25
2022-08-25T03:08:45.070Z,1019.23
2022-08-25T03:09:45.039Z,1019.24
2022-08-25T03:10:45.103Z,1019.19
2022-08-25T03:11:45.018Z,1019.20
2022-08-25T03:12:45.024Z,1019.21
2022-08-25T03:13:45.005Z,1019.21
2022-08-25T03:14:44.987Z,1019.24
2022-08-25T03:15:44.984Z,1019.21
2022-08-25T03:16:46.260Z,1019.22
2022-08-25T03:17:45.723Z,1019.22
2022-08-25T03:18:44.879Z,1019.21
2022-08-25T03:19:44.825Z,1019.25
2022-08-25T03:20:44.811Z,1019.22
2022-08-25T03:21:44.804Z,1019.24
2022-08-25T03:22:44.866Z,1019.21
2022-08-25T03:23:44.776Z,1019.23
2022-08-25T03:24:44.767Z,1019.16
2022-08-25T03:25:44.750Z,1019.21
2022-08-25T03:26:44.749Z,1019.19
2022-08-25T03:27:44.736Z,1019.19
2022-08-25T03:28:44.775Z,1019.27
2022-08-25T03:29:44.718Z,1019.20
2022-08-25T03:30:44.694Z,1019.20
2022-08-25T03:31:44.945Z,1019.20
2022-08-25T03:32:44.687Z,1019.18
2022-08-25T03:33:44.677Z,1019.19
2022-08-25T03:34:44.702Z,1019.17
2022-08-25T03:35:44.651Z,1019.14
2022-08-25T03:36:44.632Z,1019.18
2022-08-25T03:37:44.624Z,1019.12
2022-08-25T03:38:44.618Z,1019.14
2022-08-25T03:39:44.636Z,1019.10
2022-08-25T03:40:44.748Z,1019.12
2022-08-25T03:41:44.664Z,1019.10
2022-08-25T03:42:45.238Z,1019.12
2022-08-25T03:43:44.555Z,1019.06
2022-08-25T03:44:44.547Z,1019.05
2022-08-25T03:45:44.666Z,1019.06
2022-08-25T03:46:44.550Z,1019.03
2022-08-25T03:47:44.516Z,1019.05
2022-08-25T03:48:44.500Z,1019.04
2022-08-25T03:49:44.483Z,1019.01
2022-08-25T03:50:44.490Z,1018.99
2022-08-25T03:51:44.465Z,1019.01
2022-08-25T03:52:44.502Z,1019.02
2022-08-25T03:53:44.445Z,1019.05
2022-08-25T03:54:44.435Z,1019.08
2022-08-25T03:55:44.412Z,1019.08
2022-08-25T03:56:44.409Z,1019.06
2022-08-25T03:57:44.442Z,1019.09
2022-08-25T03:58:44.464Z,1019.08
2022-08-25T03:59:44.372Z,1019.08
2022-08-25T04:00:44.393Z,1019.05
2022-08-25T04:01:44.347Z,1019.06
2022-08-25T04:02:44.405Z,1019.05
2022-08-25T04:03:44.330Z,1019.07
2022-08-25T04:04:44.364Z,1019.03
2022-08-25T04:05:44.358Z,1019.06
2022-08-25T04:06:44.299Z,1019.01
2022-08-25T04:07:44.290Z,1019.03
2022-08-25T04:08:44.278Z,1019.03
2022-08-25T04:09:44.261Z,1019.00
2022-08-25T04:10:44.285Z,1019.01
2022-08-25T04:11:44.480Z,1019.04
2022-08-25T04:12:44.234Z,1019.00
2022-08-25T04:13:44.220Z,1019.01
2022-08-25T04:14:44.202Z,1019.00
2022-08-25T04:15:44.242Z,1019.00
2022-08-25T04:16:44.297Z,1019.03
2022-08-25T04:17:44.782Z,1019.01
2022-08-25T04:18:44.172Z,1019.04
2022-08-25T04:19:44.142Z,1019.07
2022-08-25T04:20:46.800Z,1019.02
2022-08-25T04:21:44.132Z,1019.04
2022-08-25T04:22:44.947Z,1019.05
2022-08-25T04:23:44.111Z,1018.99
2022-08-25T04:24:44.096Z,1019.00
2022-08-25T04:25:44.083Z,1019.02
2022-08-25T04:26:44.078Z,1018.99
2022-08-25T04:27:44.065Z,1019.00
2022-08-25T04:28:44.082Z,1019.00
2022-08-25T04:29:44.038Z,1018.96
2022-08-25T04:30:44.025Z,1019.02
2022-08-25T04:31:44.121Z,1019.01
2022-08-25T04:32:44.000Z,1019.04
2022-08-25T04:33:44.017Z,1018.97
2022-08-25T04:34:44.018Z,1019.00
2022-08-25T04:35:43.971Z,1018.96
2022-08-25T04:36:43.969Z,1018.98
2022-08-25T04:37:43.947Z,1019.03
2022-08-25T04:38:43.939Z,1019.06
2022-08-25T04:39:43.920Z,1018.99
2022-08-25T04:40:43.965Z,1018.97
2022-08-25T04:41:49.964Z,1019.00
2022-08-25T04:42:43.891Z,1018.97
2022-08-25T04:43:43.882Z,1018.96
2022-08-25T04:44:43.901Z,1018.91
2022-08-25T04:45:43.934Z,1018.97
2022-08-25T04:46:43.891Z,1018.97
2022-08-25T04:47:43.824Z,1018.96
2022-08-25T04:48:43.826Z,1018.93
2022-08-25T04:49:43.838Z,1018.94
2022-08-25T04:50:43.804Z,1018.92
2022-08-25T04:51:43.805Z,1018.86
2022-08-25T04:52:43.829Z,1018.92
2022-08-25T04:53:43.771Z,1018.90
2022-08-25T04:54:43.817Z,1018.92
2022-08-25T04:55:43.749Z,1018.86
2022-08-25T04:56:43.801Z,1018.85
2022-08-25T04:57:43.731Z,1018.89
2022-08-25T04:58:43.777Z,1018.87
2022-08-25T04:59:43.696Z,1018.89
2022-08-25T05:00:43.737Z,1018.85
2022-08-25T05:01:43.683Z,1018.86
2022-08-25T05:02:43.733Z,1018.89
2022-08-25T05:03:43.656Z,1018.89
2022-08-25T05:04:44.313Z,1018.85
2022-08-25T05:05:43.639Z,1018.88
2022-08-25T05:06:43.698Z,1018.88
2022-08-25T05:07:43.612Z,1018.90
2022-08-25T05:08:46.067Z,1018.91
2022-08-25T05:09:43.977Z,1018.91
2022-08-25T05:10:43.657Z,1018.92
2022-08-25T05:11:43.685Z,1018.88
2022-08-25T05:12:43.833Z,1018.92
2022-08-25T05:13:43.552Z,1018.89
2022-08-25T05:14:43.551Z,1018.93
2022-08-25T05:15:43.521Z,1018.91
2022-08-25T05:16:43.579Z,1018.92
2022-08-25T05:17:43.505Z,1018.90
2022-08-25T05:18:45.350Z,1018.86
2022-08-25T05:19:44.344Z,1018.83
2022-08-25T05:20:43.471Z,1018.85
2022-08-25T05:21:43.456Z,1018.86
2022-08-25T05:22:43.539Z,1018.90
2022-08-25T05:23:43.478Z,1018.86
2022-08-25T05:24:43.839Z,1018.84
2022-08-25T05:25:43.686Z,1018.89
2022-08-25T05:26:43.452Z,1018.89
2022-08-25T05:27:43.460Z,1018.93
2022-08-25T05:28:49.410Z,1018.89
2022-08-25T05:29:49.378Z,1018.95
2022-08-25T05:30:49.392Z,1018.95
2022-08-25T05:31:48.328Z,1018.92
2022-08-25T05:32:43.392Z,1018.93
2022-08-25T05:33:43.695Z,1018.90
2022-08-25T05:34:43.346Z,1018.93
2022-08-25T05:35:43.325Z,1018.92
2022-08-25T05:36:43.625Z,1018.88
2022-08-25T05:37:43.730Z,1018.87
2022-08-25T05:38:43.323Z,1018.89
2022-08-25T05:39:44.273Z,1018.89
2022-08-25T05:40:43.328Z,1018.79
2022-08-25T05:41:43.253Z,1018.79
2022-08-25T05:42:43.237Z,1018.82
2022-08-25T05:43:43.213Z,1018.76
2022-08-25T05:44:43.214Z,1018.77
2022-08-25T05:45:43.707Z,1018.79
2022-08-25T05:46:43.214Z,1018.75
2022-08-25T05:47:43.175Z,1018.87
2022-08-25T05:48:43.306Z,1018.80
2022-08-25T05:49:43.943Z,1018.83
2022-08-25T05:50:43.142Z,1018.89
2022-08-25T05:51:43.146Z,1018.85
2022-08-25T05:52:43.147Z,1018.86
2022-08-25T05:53:43.107Z,1018.87
2022-08-25T05:54:43.162Z,1018.83
2022-08-25T05:55:43.891Z,1018.81
2022-08-25T05:56:43.162Z,1018.82
2022-08-25T05:57:43.103Z,1018.82
2022-08-25T05:58:43.260Z,1018.80
2022-08-25T05:59:43.093Z,1018.80
2022-08-25T06:00:43.180Z,1018.79
2022-08-25T06:01:45.267Z,1018.79
2022-08-25T06:02:43.256Z,1018.77
2022-08-25T06:03:43.144Z,1018.77
2022-08-25T06:04:43.268Z,1018.77
2022-08-25T06:05:43.408Z,1018.78
2022-08-25T06:06:43.390Z,1018.72
2022-08-25T06:07:43.244Z,1018.78
2022-08-25T06:08:43.095Z,1018.76
2022-08-25T06:09:42.992Z,1018.70
2022-08-25T06:10:43.040Z,1018.77
2022-08-25T06:11:43.383Z,1018.77
2022-08-25T06:12:43.246Z,1018.71
2022-08-25T06:13:43.117Z,1018.71
2022-08-25T06:14:43.126Z,1018.76
2022-08-25T06:15:43.178Z,1018.71
2022-08-25T06:16:43.120Z,1018.72
2022-08-25T06:17:43.259Z,1018.69
2022-08-25T06:18:43.149Z,1018.75
2022-08-25T06:19:42.950Z,1018.75
2022-08-25T06:20:42.856Z,1018.75
2022-08-25T06:21:43.046Z,1018.75
2022-08-25T06:22:42.956Z,1018.80
2022-08-25T06:23:43.320Z,1018.77
2022-08-25T06:24:43.290Z,1018.81
2022-08-25T06:25:43.022Z,1018.83
2022-08-25T06:26:42.981Z,1018.81
2022-08-25T06:27:42.985Z,1018.83
2022-08-25T06:28:43.351Z,1018.79
2022-08-25T06:29:43.723Z,1018.77
2022-08-25T06:30:42.797Z,1018.77
2022-08-25T06:31:43.506Z,1018.78
2022-08-25T06:32:43.073Z,1018.77
2022-08-25T06:33:42.799Z,1018.75
2022-08-25T06:34:43.859Z,1018.72
2022-08-25T06:35:42.738Z,1018.69
2022-08-25T06:36:43.233Z,1018.67
2022-08-25T06:37:43.224Z,1018.68
2022-08-25T06:38:43.797Z,1018.66
2022-08-25T06:39:42.713Z,1018.63
2022-08-25T06:40:42.706Z,1018.69
2022-08-25T06:41:42.842Z,1018.67
2022-08-25T06:42:43.196Z,1018.68
2022-08-25T06:43:48.099Z,1018.71
2022-08-25T06:44:42.952Z,1018.68
2022-08-25T06:45:42.844Z,1018.72
2022-08-25T06:46:42.838Z,1018.72
2022-08-25T06:47:43.037Z,1018.74
2022-08-25T06:48:42.725Z,1018.76
2022-08-25T06:49:42.893Z,1018.76
2022-08-25T06:50:42.669Z,1018.75
2022-08-25T06:51:42.651Z,1018.74
2022-08-25T06:52:42.691Z,1018.74
2022-08-25T06:53:42.600Z,1018.67
2022-08-25T06:54:42.902Z,1018.65
2022-08-25T06:55:42.441Z,1018.67
2022-08-25T06:56:42.718Z,1018.70
2022-08-25T06:57:42.740Z,1018.61
2022-08-25T06:58:42.731Z,1018.64
2022-08-25T06:59:43.479Z,1018.60
2022-08-25T07:00:42.638Z,1018.63
2022-08-25T07:01:42.986Z,1018.68
2022-08-25T07:02:42.928Z,1018.68
2022-08-25T07:03:42.467Z,1018.68
2022-08-25T07:04:42.423Z,1018.60
2022-08-25T07:05:43.772Z,1018.64
2022-08-25T07:06:42.288Z,1018.63
2022-08-25T07:07:43.597Z,1018.63
2022-08-25T07:08:42.582Z,1018.69
2022-08-25T07:09:42.568Z,1018.69
2022-08-25T07:10:42.481Z,1018.72
2022-08-25T07:11:42.321Z,1018.67
2022-08-25T07:12:42.265Z,1018.71
2022-08-25T07:13:42.508Z,1018.74
2022-08-25T07:14:53.410Z,1018.79
2022-08-25T07:15:42.230Z,1018.76
2022-08-25T07:16:48.716Z,1018.79
2022-08-25T07:17:42.452Z,1018.79
2022-08-25T07:18:42.154Z,1018.78
2022-08-25T07:19:42.426Z,1018.78
2022-08-25T07:20:42.176Z,1018.76
2022-08-25T07:21:42.187Z,1018.78
2022-08-25T07:22:42.248Z,1018.75
2022-08-25T07:23:42.187Z,1018.68
2022-08-25T07:24:42.102Z,1018.71
2022-08-25T07:25:42.075Z,1018.74
2022-08-25T07:26:42.127Z,1018.75
2022-08-25T07:27:42.276Z,1018.68
2022-08-25T07:28:47.487Z,1018.73
2022-08-25T07:29:42.273Z,1018.76
2022-08-25T07:30:42.204Z,1018.75
2022-08-25T07:31:42.172Z,1018.77
2022-08-25T07:32:43.101Z,1018.73
2022-08-25T07:33:42.040Z,1018.76
2022-08-25T07:34:42.418Z,1018.80
2022-08-25T07:35:43.603Z,1018.76
2022-08-25T07:36:42.936Z,1018.76
2022-08-25T07:51:30.444Z,1018.75
2022-08-25T07:51:35.713Z,1018.79
2022-08-25T07:52:35.728Z,1018.82
2022-08-25T07:53:35.606Z,1018.77
2022-08-25T07:54:35.739Z,1018.80
2022-08-25T07:55:35.738Z,1018.79
2022-08-25T07:56:36.026Z,1018.77
2022-08-25T07:57:35.821Z,1018.79
2022-08-25T07:58:35.618Z,1018.76
2022-08-25T07:59:39.198Z,1018.75
2022-08-25T08:00:35.958Z,1018.72
2022-08-25T08:01:35.912Z,1018.68
2022-08-25T08:02:35.702Z,1018.69
2022-08-25T08:03:50.500Z,1018.73
2022-08-25T08:04:35.734Z,1018.70
2022-08-25T08:05:36.079Z,1018.74
2022-08-25T08:06:35.747Z,1018.74
2022-08-25T08:07:43.281Z,1018.71
2022-08-25T08:08:35.576Z,1018.75
2022-08-25T08:09:35.411Z,1018.70
2022-08-25T08:10:53.986Z,1018.67
2022-08-25T08:11:36.339Z,1018.71
2022-08-25T08:12:35.546Z,1018.71
2022-08-25T08:13:39.330Z,1018.68
2022-08-25T08:14:35.545Z,1018.70
2022-08-25T08:15:35.577Z,1018.72
2022-08-25T08:16:35.609Z,1018.69
2022-08-25T08:17:35.686Z,1018.74
2022-08-25T08:18:35.389Z,1018.73
2022-08-25T08:19:35.540Z,1018.76
2022-08-25T08:20:42.374Z,1018.74
2022-08-25T08:21:35.368Z,1018.73
2022-08-25T08:22:36.024Z,1018.74
2022-08-25T08:23:35.443Z,1018.73
2022-08-25T08:24:44.852Z,1018.74
2022-08-25T08:25:35.305Z,1018.73
2022-08-25T08:26:57.632Z,1018.76
2022-08-25T08:27:35.503Z,1018.81
2022-08-25T08:28:35.089Z,1018.77
2022-08-25T08:29:35.375Z,1018.74
2022-08-25T08:30:35.384Z,1018.73
2022-08-25T08:31:37.325Z,1018.76
2022-08-25T08:32:53.265Z,1018.79
2022-08-25T08:33:35.449Z,1018.78
2022-08-25T08:34:35.158Z,1018.77
2022-08-25T08:35:35.223Z,1018.77
2022-08-25T08:36:35.177Z,1018.77
2022-08-25T08:37:35.140Z,1018.78
2022-08-25T08:38:35.365Z,1018.79
2022-08-25T08:39:35.287Z,1018.76
2022-08-25T08:40:35.174Z,1018.77
2022-08-25T08:41:54.235Z,1018.72
2022-08-25T08:42:35.245Z,1018.75
2022-08-25T08:43:35.274Z,1018.73
2022-08-25T08:44:36.134Z,1018.67
2022-08-25T08:45:35.731Z,1018.72
2022-08-25T08:46:35.189Z,1018.74
2022-08-25T08:47:35.087Z,1018.67
2022-08-25T08:48:35.197Z,1018.68
2022-08-25T08:49:34.960Z,1018.69
2022-08-25T08:50:35.275Z,1018.70
2022-08-25T08:51:35.100Z,1018.75
2022-08-25T08:52:35.062Z,1018.67
2022-08-25T08:53:34.994Z,1018.70
2022-08-25T08:54:34.904Z,1018.69
2022-08-25T08:55:34.984Z,1018.71
2022-08-25T08:56:35.323Z,1018.67
2022-08-25T08:57:35.130Z,1018.63
2022-08-25T08:58:34.871Z,1018.63
2022-08-25T08:59:34.885Z,1018.65
2022-08-25T09:00:34.944Z,1018.65
2022-08-25T09:01:35.104Z,1018.63
2022-08-25T09:02:38.577Z,1018.66
2022-08-25T09:03:34.964Z,1018.68
2022-08-25T09:04:35.242Z,1018.69
2022-08-25T09:05:40.995Z,1018.68
2022-08-25T09:06:34.769Z,1018.65
2022-08-25T09:07:34.790Z,1018.64
2022-08-25T09:08:35.060Z,1018.63
2022-08-25T09:09:35.715Z,1018.67
2022-08-25T09:10:34.980Z,1018.60
2022-08-25T09:11:35.073Z,1018.61
2022-08-25T09:12:34.935Z,1018.57
2022-08-25T09:13:35.197Z,1018.59
2022-08-25T09:14:34.807Z,1018.56
2022-08-25T09:15:41.145Z,1018.55
2022-08-25T09:16:34.989Z,1018.59
2022-08-25T09:17:34.752Z,1018.55
2022-08-25T09:18:39.018Z,1018.58
2022-08-25T09:19:34.577Z,1018.57
2022-08-25T09:20:34.757Z,1018.56
2022-08-25T09:21:34.662Z,1018.50
2022-08-25T09:22:36.677Z,1018.46
2022-08-25T09:23:34.772Z,1018.45
2022-08-25T09:24:34.584Z,1018.51
2022-08-25T09:25:52.236Z,1018.48
2022-08-25T09:26:34.812Z,1018.50
2022-08-25T09:27:34.834Z,1018.50
2022-08-25T09:28:34.698Z,1018.51
2022-08-25T09:29:34.727Z,1018.43
2022-08-25T09:30:34.782Z,1018.46
2022-08-25T09:31:34.561Z,1018.51
2022-08-25T09:32:34.723Z,1018.52
2022-08-25T09:33:35.678Z,1018.55
2022-08-25T09:34:35.233Z,1018.53
2022-08-25T09:35:34.729Z,1018.57
2022-08-25T09:36:37.721Z,1018.49
2022-08-25T09:37:34.654Z,1018.52
2022-08-25T09:38:35.363Z,1018.52
2022-08-25T09:39:34.652Z,1018.54
2022-08-25T09:40:34.699Z,1018.53
2022-08-25T09:41:34.523Z,1018.54
2022-08-25T09:42:34.520Z,1018.54
2022-08-25T09:43:34.379Z,1018.38
2022-08-25T09:44:34.610Z,1018.42
2022-08-25T09:45:34.494Z,1018.40
2022-08-25T09:46:34.491Z,1018.40
2022-08-25T09:47:35.095Z,1018.40
2022-08-25T09:48:39.379Z,1018.33
2022-08-25T09:49:34.531Z,1018.37
2022-08-25T09:50:34.852Z,1018.40
2022-08-25T09:51:38.230Z,1018.38
2022-08-25T09:52:34.729Z,1018.39
2022-08-25T09:53:34.367Z,1018.30
2022-08-25T09:54:44.172Z,1018.33
2022-08-25T09:55:34.287Z,1018.33
2022-08-25T09:56:34.455Z,1018.30
2022-08-25T09:57:34.602Z,1018.28
2022-08-25T09:58:34.389Z,1018.26
2022-08-25T09:59:35.704Z,1018.24
2022-08-25T10:00:34.369Z,1018.23
2022-08-25T10:01:35.205Z,1018.20
2022-08-25T10:02:34.656Z,1018.18
2022-08-25T10:03:36.796Z,1018.17
2022-08-25T10:04:34.422Z,1018.18
2022-08-25T10:05:34.378Z,1018.14
2022-08-25T10:06:34.209Z,1018.12
2022-08-25T10:07:34.335Z,1018.12
2022-08-25T10:08:34.514Z,1018.12
2022-08-25T10:09:34.297Z,1018.10
2022-08-25T10:10:34.523Z,1018.06
2022-08-25T10:11:34.297Z,1018.07
2022-08-25T10:12:35.890Z,1018.03
2022-08-25T10:13:34.203Z,1018.04
2022-08-25T10:14:34.266Z,1017.96
2022-08-25T10:15:34.210Z,1018.00
2022-08-25T10:16:36.272Z,1018.03
2022-08-25T10:17:34.095Z,1017.99
2022-08-25T10:18:34.120Z,1017.97
2022-08-25T10:19:34.277Z,1017.98
2022-08-25T10:20:35.266Z,1017.95
2022-08-25T10:21:34.162Z,1017.90
2022-08-25T10:22:33.934Z,1017.92
2022-08-25T10:23:35.086Z,1017.88
2022-08-25T10:24:35.002Z,1017.87
2022-08-25T10:25:34.226Z,1017.87
2022-08-25T10:26:35.042Z,1017.86
2022-08-25T10:27:34.018Z,1017.77
2022-08-25T10:28:34.013Z,1017.79
2022-08-25T10:29:33.944Z,1017.69
2022-08-25T10:30:33.869Z,1017.70
2022-08-25T10:31:34.826Z,1017.75
2022-08-25T10:32:33.947Z,1017.71
2022-08-25T10:33:33.988Z,1017.71
2022-08-25T10:34:35.700Z,1017.70
2022-08-25T10:35:33.974Z,1017.69
2022-08-25T10:36:33.858Z,1017.70
2022-08-25T10:37:33.842Z,1017.68
2022-08-25T10:38:36.229Z,1017.65
2022-08-25T10:39:36.450Z,1017.60
2022-08-25T10:40:33.680Z,1017.61
2022-08-25T10:41:34.008Z,1017.56
2022-08-25T10:42:33.905Z,1017.58
2022-08-25T10:43:33.763Z,1017.55
2022-08-25T10:44:34.048Z,1017.46
2022-08-25T10:45:33.586Z,1017.47
2022-08-25T10:46:33.991Z,1017.48
2022-08-25T10:47:34.295Z,1017.44
2022-08-25T10:48:33.876Z,1017.43
2022-08-25T10:49:35.861Z,1017.46
2022-08-25T10:50:34.806Z,1017.47
2022-08-25T10:51:34.325Z,1017.49
2022-08-25T10:52:33.731Z,1017.43
2022-08-25T10:53:33.786Z,1017.45
2022-08-25T10:54:33.739Z,1017.45
2022-08-25T10:55:33.778Z,1017.37
2022-08-25T10:56:33.734Z,1017.35
2022-08-25T10:57:35.264Z,1017.38
2022-08-25T10:58:33.825Z,1017.32
2022-08-25T10:59:33.446Z,1017.35
2022-08-25T11:00:33.501Z,1017.30
2022-08-25T11:01:42.873Z,1017.24
2022-08-25T11:02:33.582Z,1017.32
2022-08-25T11:03:35.416Z,1017.24
2022-08-25T11:04:33.548Z,1017.21
2022-08-25T11:05:34.090Z,1017.16
2022-08-25T11:06:33.455Z,1017.17
2022-08-25T11:07:33.519Z,1017.16
2022-08-25T11:08:33.548Z,1017.16
2022-08-25T11:09:33.428Z,1017.17
2022-08-25T11:10:33.390Z,1017.17
2022-08-25T11:11:33.304Z,1017.14
2022-08-25T11:12:33.379Z,1017.09
2022-08-25T11:13:33.343Z,1017.05
2022-08-25T11:14:34.692Z,1017.04
2022-08-25T11:15:33.303Z,1017.09
2022-08-25T11:16:33.401Z,1017.04
2022-08-25T11:17:33.288Z,1017.05
2022-08-25T11:18:33.338Z,1017.07
2022-08-25T11:19:33.809Z,1017.08
2022-08-25T11:20:33.514Z,1017.05
2022-08-25T11:21:34.901Z,1017.09
2022-08-25T11:22:33.323Z,1017.03
2022-08-25T11:23:33.393Z,1017.02
2022-08-25T11:24:33.274Z,1017.00
2022-08-25T11:25:33.343Z,1016.96
2022-08-25T11:26:36.615Z,1016.91
2022-08-25T11:27:33.179Z,1016.90
2022-08-25T11:28:33.187Z,1016.91
2022-08-25T11:29:33.183Z,1016.85
2022-08-25T11:30:33.214Z,1016.87
2022-08-25T11:31:33.106Z,1016.83
2022-08-25T11:32:33.199Z,1016.86
2022-08-25T11:33:33.372Z,1016.89
2022-08-25T11:34:33.212Z,1016.83
2022-08-25T11:35:33.095Z,1016.87
2022-08-25T11:36:33.065Z,1016.76
2022-08-25T11:37:33.255Z,1016.77
2022-08-25T11:38:33.376Z,1016.81
2022-08-25T11:39:33.105Z,1016.83
2022-08-25T11:40:33.128Z,1016.77
2022-08-25T11:41:33.095Z,1016.80
2022-08-25T11:42:33.021Z,1016.80
2022-08-25T11:43:35.891Z,1016.74
2022-08-25T11:44:33.121Z,1016.73
2022-08-25T11:45:33.060Z,1016.73
2022-08-25T11:46:32.948Z,1016.69
2022-08-25T11:47:32.786Z,1016.73
2022-08-25T11:48:32.743Z,1016.71
2022-08-25T11:49:32.732Z,1016.71
2022-08-25T11:50:32.831Z,1016.65
2022-08-25T11:51:33.732Z,1016.69
2022-08-25T11:52:32.734Z,1016.66
2022-08-25T11:53:32.725Z,1016.70
2022-08-25T11:54:32.728Z,1016.66
2022-08-25T11:55:32.729Z,1016.68
2022-08-25T11:56:32.801Z,1016.66
2022-08-25T11:57:32.709Z,1016.64
2022-08-25T11:58:32.803Z,1016.68
2022-08-25T11:59:32.761Z,1016.70
2022-08-25T12:00:33.000Z,1016.63
2022-08-25T12:01:32.653Z,1016.68
2022-08-25T12:02:32.785Z,1016.65
2022-08-25T12:03:32.744Z,1016.65
2022-08-25T12:04:32.709Z,1016.68
2022-08-25T12:05:32.699Z,1016.64
2022-08-25T12:06:32.587Z,1016.68
2022-08-25T12:07:32.688Z,1016.65
2022-08-25T12:08:32.647Z,1016.66
2022-08-25T12:09:32.600Z,1016.62
2022-08-25T12:10:32.520Z,1016.62
2022-08-25T12:11:32.626Z,1016.60
2022-08-25T12:12:32.484Z,1016.61
2022-08-25T12:13:32.490Z,1016.59
2022-08-25T12:14:32.527Z,1016.63
2022-08-25T12:15:32.568Z,1016.57
2022-08-25T12:16:32.539Z,1016.54
2022-08-25T12:17:32.436Z,1016.49
2022-08-25T12:18:32.460Z,1016.50